sensor_id;sensor_type;location;lat;lon;timestamp;temperature;humidity
43530;DHT22;55654;50.966;6.878;2023-06-22T11:14:47;27.00;51.50
43530;DHT22;55654;50.966;6.878;2023-06-22T11:26:58;22.10;99.90
43530;DHT22;55654;50.966;6.878;2023-06-22T11:29:25;22.10;99.90
43530;DHT22;55654;50.966;6.878;2023-06-22T11:31:51;22.10;99.90
43530;DHT22;55654;50.966;6.878;2023-06-22T11:34:17;22.20;99.90
43530;DHT22;55654;50.966;6.878;2023-06-22T11:36:44;22.30;99.90
43530;DHT22;55654;50.966;6.878;2023-06-22T11:39:10;22.40;99.90
43530;DHT22;55654;50.966;6.878;2023-06-22T11:41:37;22.40;99.90
43530;DHT22;55654;50.966;6.878;2023-06-22T11:44:02;22.50;99.90
43530;DHT22;55654;50.966;6.878;2023-06-22T11:53:49;22.50;99.90
43530;DHT22;55654;50.966;6.878;2023-06-22T11:58:43;22.60;99.90
43530;DHT22;55654;50.966;6.878;2023-06-22T12:01:09;22.40;99.90
43530;DHT22;55654;50.966;6.878;2023-06-22T12:08:32;22.30;99.90
43530;DHT22;55654;50.966;6.878;2023-06-22T12:11:00;22.80;99.90
43530;DHT22;55654;50.966;6.878;2023-06-22T12:20:46;23.00;99.90
43530;DHT22;55654;50.966;6.878;2023-06-22T12:23:11;23.20;99.90
43530;DHT22;55654;50.966;6.878;2023-06-22T12:32:58;23.00;99.90
43530;DHT22;55654;50.966;6.878;2023-06-22T12:35:24;23.20;99.90
43530;DHT22;55654;50.966;6.878;2023-06-22T12:37:52;23.40;99.90
43530;DHT22;55654;50.966;6.878;2023-06-22T12:40:18;23.50;99.90
43530;DHT22;55654;50.966;6.878;2023-06-22T12:42:45;23.60;99.90
43530;DHT22;55654;50.966;6.878;2023-06-22T13:21:58;23.70;99.90
43530;DHT22;55654;50.966;6.878;2023-06-22T13:24:27;25.80;99.90
43530;DHT22;55654;50.966;6.878;2023-06-22T13:26:53;25.70;99.90
43530;DHT22;55654;50.966;6.878;2023-06-22T13:29:19;25.70;99.90
43530;DHT22;55654;50.966;6.878;2023-06-22T13:31:44;25.70;99.90
43530;DHT22;55654;50.966;6.878;2023-06-22T13:34:10;25.80;99.90
43530;DHT22;55654;50.966;6.878;2023-06-22T13:36:36;26.00;99.90
43530;DHT22;55654;50.966;6.878;2023-06-22T13:39:01;26.10;99.90
43530;DHT22;55654;50.966;6.878;2023-06-22T13:41:27;26.20;99.90
43530;DHT22;55654;50.966;6.878;2023-06-22T13:43:52;26.20;99.90
43530;DHT22;55654;50.966;6.878;2023-06-22T13:46:18;26.20;99.90
43530;DHT22;55654;50.966;6.878;2023-06-22T13:48:44;26.50;99.90
43530;DHT22;55654;50.966;6.878;2023-06-22T13:51:09;26.60;99.90
43530;DHT22;55654;50.966;6.878;2023-06-22T13:53:35;26.60;99.90
43530;DHT22;55654;50.966;6.878;2023-06-22T13:56:00;26.70;99.90
43530;DHT22;55654;50.966;6.878;2023-06-22T13:58:28;26.70;99.90
43530;DHT22;55654;50.966;6.878;2023-06-22T14:00:54;27.00;99.90
43530;DHT22;55654;50.966;6.878;2023-06-22T14:03:19;27.20;99.90
43530;DHT22;55654;50.966;6.878;2023-06-22T14:05:47;27.30;99.90
43530;DHT22;55654;50.966;6.878;2023-06-22T14:08:13;27.30;99.90
43530;DHT22;55654;50.966;6.878;2023-06-22T14:10:40;27.20;99.90
43530;DHT22;55654;50.966;6.878;2023-06-22T14:13:05;27.20;99.90
43530;DHT22;55654;50.966;6.878;2023-06-22T14:15:34;27.10;99.90
43530;DHT22;55654;50.966;6.878;2023-06-22T14:18:02;27.00;99.90
43530;DHT22;55654;50.966;6.878;2023-06-22T14:20:28;26.90;99.90
43530;DHT22;55654;50.966;6.878;2023-06-22T14:22:55;26.80;99.90
43530;DHT22;55654;50.966;6.878;2023-06-22T14:25:21;26.80;99.90
43530;DHT22;55654;50.966;6.878;2023-06-22T14:44:56;26.70;99.90
43530;DHT22;55654;50.966;6.878;2023-06-22T14:47:21;26.20;99.90
43530;DHT22;55654;50.966;6.878;2023-06-22T14:49:48;26.20;99.90
43530;DHT22;55654;50.966;6.878;2023-06-22T14:52:13;26.10;99.90
43530;DHT22;55654;50.966;6.878;2023-06-22T14:54:39;26.20;99.90
43530;DHT22;55654;50.966;6.878;2023-06-22T14:57:05;26.20;99.90
43530;DHT22;55654;50.966;6.878;2023-06-22T14:59:30;26.20;99.90
43530;DHT22;55654;50.966;6.878;2023-06-22T15:01:56;26.20;99.90
43530;DHT22;55654;50.966;6.878;2023-06-22T15:04:22;26.20;99.90
43530;DHT22;55654;50.966;6.878;2023-06-22T15:06:47;26.30;99.90
43530;DHT22;55654;50.966;6.878;2023-06-22T15:09:13;26.30;99.90
43530;DHT22;55654;50.966;6.878;2023-06-22T15:11:39;26.10;99.90
43530;DHT22;55654;50.966;6.878;2023-06-22T15:14:52;26.00;99.90
43530;DHT22;55654;50.966;6.878;2023-06-22T15:17:17;25.80;99.90
43530;DHT22;55654;50.966;6.878;2023-06-22T15:19:43;25.60;99.90
43530;DHT22;55654;50.966;6.878;2023-06-22T15:22:09;25.50;99.90
43530;DHT22;55654;50.966;6.878;2023-06-22T15:24:37;25.30;99.90
43530;DHT22;55654;50.966;6.878;2023-06-22T16:08:57;24.90;99.90
43530;DHT22;55654;50.966;6.878;2023-06-22T16:11:22;22.60;99.90
43530;DHT22;55654;50.966;6.878;2023-06-22T16:13:48;22.50;99.90
43530;DHT22;55654;50.966;6.878;2023-06-22T16:16:13;22.40;99.90
43530;DHT22;55654;50.966;6.878;2023-06-22T16:18:41;22.40;99.90
43530;DHT22;55654;50.966;6.878;2023-06-22T16:21:08;22.30;99.90
43530;DHT22;55654;50.966;6.878;2023-06-22T17:12:52;22.30;99.90
43530;DHT22;55654;50.966;6.878;2023-06-22T17:15:21;21.20;99.90
43530;DHT22;55654;50.966;6.878;2023-06-22T17:17:46;21.30;99.90
43530;DHT22;55654;50.966;6.878;2023-06-22T17:20:12;21.30;99.90
43530;DHT22;55654;50.966;6.878;2023-06-22T17:22:38;21.40;99.90
43530;DHT22;55654;50.966;6.878;2023-06-22T17:25:09;21.40;99.90
43530;DHT22;55654;50.966;6.878;2023-06-22T17:27:47;21.50;99.90
43530;DHT22;55654;50.966;6.878;2023-06-22T17:30:14;21.50;99.90
43530;DHT22;55654;50.966;6.878;2023-06-22T17:32:46;21.70;99.90
43530;DHT22;55654;50.966;6.878;2023-06-22T17:35:12;21.90;99.90
43530;DHT22;55654;50.966;6.878;2023-06-22T17:37:49;22.00;99.90
43530;DHT22;55654;50.966;6.878;2023-06-22T17:40:17;22.00;99.90
43530;DHT22;55654;50.966;6.878;2023-06-22T17:42:43;22.10;99.90
43530;DHT22;55654;50.966;6.878;2023-06-22T17:50:23;22.10;99.90
43530;DHT22;55654;50.966;6.878;2023-06-22T17:52:53;22.00;99.90
43530;DHT22;55654;50.966;6.878;2023-06-22T19:17:34;22.00;99.90
43530;DHT22;55654;50.966;6.878;2023-06-22T19:20:06;19.40;99.90
43530;DHT22;55654;50.966;6.878;2023-06-22T19:25:22;19.10;99.90
43530;DHT22;55654;50.966;6.878;2023-06-22T19:27:52;18.90;99.90
43530;DHT22;55654;50.966;6.878;2023-06-22T19:30:18;18.80;99.90
43530;DHT22;55654;50.966;6.878;2023-06-22T19:32:45;18.80;99.90
43530;DHT22;55654;50.966;6.878;2023-06-22T19:45:08;18.70;99.90
43530;DHT22;55654;50.966;6.878;2023-06-22T19:47:35;18.40;99.90
43530;DHT22;55654;50.966;6.878;2023-06-22T19:50:02;18.30;99.90
43530;DHT22;55654;50.966;6.878;2023-06-22T19:55:01;18.00;99.90
43530;DHT22;55654;50.966;6.878;2023-06-22T19:57:26;17.80;99.90
43530;DHT22;55654;50.966;6.878;2023-06-22T20:00:04;17.80;99.90
43530;DHT22;55654;50.966;6.878;2023-06-22T20:02:52;17.60;99.90
43530;DHT22;55654;50.966;6.878;2023-06-22T20:05:28;17.50;99.90
43530;DHT22;55654;50.966;6.878;2023-06-22T21:54:37;17.30;99.90
43530;DHT22;55654;50.966;6.878;2023-06-22T21:57:03;17.40;99.90
43530;DHT22;55654;50.966;6.878;2023-06-22T21:59:30;17.30;99.90
43530;DHT22;55654;50.966;6.878;2023-06-22T22:01:58;17.20;99.90
43530;DHT22;55654;50.966;6.878;2023-06-22T22:04:24;17.20;99.90
43530;DHT22;55654;50.966;6.878;2023-06-22T22:06:56;17.20;99.90
43530;DHT22;55654;50.966;6.878;2023-06-22T22:09:24;17.20;99.90
43530;DHT22;55654;50.966;6.878;2023-06-22T22:11:50;17.30;99.90
43530;DHT22;55654;50.966;6.878;2023-06-22T22:14:18;17.30;99.90
43530;DHT22;55654;50.966;6.878;2023-06-22T22:16:46;17.20;99.90
43530;DHT22;55654;50.966;6.878;2023-06-22T22:19:15;17.20;99.90
43530;DHT22;55654;50.966;6.878;2023-06-22T22:21:41;17.30;99.90
43530;DHT22;55654;50.966;6.878;2023-06-22T22:24:10;17.30;99.90
43530;DHT22;55654;50.966;6.878;2023-06-22T22:26:36;17.40;99.90
43530;DHT22;55654;50.966;6.878;2023-06-22T22:29:11;17.40;99.90
43530;DHT22;55654;50.966;6.878;2023-06-22T22:34:17;17.40;99.90
43530;DHT22;55654;50.966;6.878;2023-06-22T22:36:52;17.40;99.90
43530;DHT22;55654;50.966;6.878;2023-06-22T22:39:35;17.40;99.90
43530;DHT22;55654;50.966;6.878;2023-06-22T22:42:05;17.30;99.90
43530;DHT22;55654;50.966;6.878;2023-06-22T22:44:34;17.30;99.90
43530;DHT22;55654;50.966;6.878;2023-06-22T22:47:10;17.20;99.90
43530;DHT22;55654;50.966;6.878;2023-06-22T22:49:36;17.20;99.90
43530;DHT22;55654;50.966;6.878;2023-06-22T22:52:01;17.10;99.90
43530;DHT22;55654;50.966;6.878;2023-06-22T22:54:29;17.10;99.90
43530;DHT22;55654;50.966;6.878;2023-06-22T22:56:57;17.10;99.90
43530;DHT22;55654;50.966;6.878;2023-06-22T22:59:23;17.10;99.90
43530;DHT22;55654;50.966;6.878;2023-06-22T23:01:49;17.00;99.90
43530;DHT22;55654;50.966;6.878;2023-06-22T23:04:20;16.90;99.90
43530;DHT22;55654;50.966;6.878;2023-06-22T23:06:50;16.90;99.90
